Time,TemperatureF,DewpointF,PressureIn,WindDirection,WindDirectionDegrees,WindSpeedMPH,WindSpeedGustMPH,Humidity,HourlyPrecipIn,Conditions,Clouds,dailyrainin,SoftwareType,DateUTC
2013-01-17 00:00:00,62.2,60.2,29.92,WSW,238,0.0,0.0,93,0.00,,SCT070,0.00,VWS V14.01,2013-01-17 05:00:00,
2013-01-17 00:03:00,63.5,61.1,29.92,WSW,238,0.0,0.0,92,0.00,,FEW050,0.00,VWS V14.01,2013-01-17 05:03:00,
2013-01-17 00:13:00,63.2,60.8,29.92,WSW,238,0.0,0.0,92,0.00,,FEW050,0.00,VWS V14.01,2013-01-17 05:13:00,
2013-01-17 00:15:00,62.0,60.0,29.92,WSW,238,0.0,0.0,93,0.00,,SCT070,0.00,VWS V14.01,2013-01-17 05:15:00,
2013-01-17 00:18:00,63.0,60.6,29.92,WSW,238,0.0,0.0,92,0.00,,FEW050,0.00,VWS V14.01,2013-01-17 05:18:00,
2013-01-17 00:23:00,62.9,60.5,29.92,WSW,238,0.0,0.0,92,0.00,,FEW050,0.00,VWS V14.01,2013-01-17 05:23:00,
2013-01-17 00:28:00,62.8,60.5,29.92,WSW,238,0.0,0.0,92,0.00,,FEW050,0.00,VWS V14.01,2013-01-17 05:28:00,
2013-01-17 00:30:00,61.9,60.2,29.92,WSW,250,0.0,2.0,94,0.00,,SCT070,0.00,VWS V14.01,2013-01-17 05:30:00,
2013-01-17 00:33:00,62.6,60.2,29.92,WSW,238,0.0,0.0,92,0.00,,FEW050,0.00,VWS V14.01,2013-01-17 05:33:00,
2013-01-17 00:43:00,62.4,60.3,29.92,WSW,238,0.0,0.0,93,0.00,,FEW050,0.00,VWS V14.01,2013-01-17 05:43:00,
2013-01-17 00:45:00,61.8,60.1,29.92,WSW,249,0.0,0.0,94,0.00,,SCT070,0.00,VWS V14.01,2013-01-17 05:45:00,
2013-01-17 00:48:00,62.4,60.3,29.92,WSW,238,0.0,0.0,93,0.00,,FEW050,0.00,VWS V14.01,2013-01-17 05:48:00,
2013-01-17 00:58:00,62.2,60.2,29.92,WSW,238,0.0,0.0,93,0.00,,FEW050,0.00,VWS V14.01,2013-01-17 05:58:00,
2013-01-17 01:00:00,61.7,60.0,29.92,WSW,250,0.0,0.0,94,0.00,,SCT070,0.00,VWS V14.01,2013-01-17 06:00:00,
2013-01-17 01:03:00,62.2,60.2,29.92,WSW,238,0.0,0.0,93,0.00,,SCT080,0.00,VWS V14.01,2013-01-17 06:03:00,
2013-01-17 01:08:00,62.1,60.1,29.92,WSW,238,0.0,0.0,93,0.00,,SCT080,0.00,VWS V14.01,2013-01-17 06:08:00,
2013-01-17 01:13:00,62.0,60.0,29.92,WSW,238,0.0,0.0,93,0.00,,SCT080,0.00,VWS V14.01,2013-01-17 06:13:00,
2013-01-17 01:15:00,62.0,60.3,29.91,WSW,250,0.0,0.0,94,0.00,,SCT070,0.00,VWS V14.01,2013-01-17 06:15:00,
2013-01-17 01:23:00,61.9,60.2,29.92,WSW,250,0.0,2.0,94,0.00,,SCT080,0.00,VWS V14.01,2013-01-17 06:23:00,
2013-01-17 01:30:00,61.9,60.2,29.92,WSW,250,0.0,2.0,94,0.00,,SCT080,0.00,VWS V14.01,2013-01-17 06:30:00,
2013-01-17 01:38:00,61.8,60.1,29.92,WSW,249,0.0,0.0,94,0.00,,SCT080,0.00,VWS V14.01,2013-01-17 06:38:00,
2013-01-17 01:43:00,61.8,60.1,29.92,WSW,249,0.0,0.0,94,0.00,,SCT080,0.00,VWS V14.01,2013-01-17 06:43:00,
2013-01-17 01:45:00,62.5,60.8,29.90,WSW,249,0.0,0.0,94,0.00,,SCT070,0.00,VWS V14.01,2013-01-17 06:45:00,
2013-01-17 01:53:00,61.7,60.0,29.92,WSW,250,0.0,0.0,94,0.00,,SCT080,0.00,VWS V14.01,2013-01-17 06:53:00,
2013-01-17 01:58:00,61.7,60.0,29.92,WSW,250,0.0,0.0,94,0.00,,SCT080,0.00,VWS V14.01,2013-01-17 06:58:00,
2013-01-17 02:00:00,62.7,60.7,29.90,WSW,249,0.0,2.0,93,0.00,,SCT070,0.00,VWS V14.01,2013-01-17 07:00:00,
2013-01-17 02:03:00,61.7,60.0,29.92,WSW,250,0.0,0.0,94,0.00,,OVC090,0.00,VWS V14.01,2013-01-17 07:03:00,
2013-01-17 02:13:00,62.0,60.3,29.91,WSW,249,0.0,0.0,94,0.00,,OVC090,0.00,VWS V14.01,2013-01-17 07:13:00,
2013-01-17 02:15:00,62.4,60.3,29.91,NE,34,0.0,4.0,93,0.00,,SCT070,0.00,VWS V14.01,2013-01-17 07:15:00,
2013-01-17 02:18:00,62.1,60.4,29.91,WSW,250,0.0,0.0,94,0.00,,OVC090,0.00,VWS V14.01,2013-01-17 07:18:00,
2013-01-17 02:23:00,62.2,60.5,29.91,WSW,250,0.0,0.0,94,0.00,,OVC090,0.00,VWS V14.01,2013-01-17 07:23:00,
2013-01-17 02:30:00,62.3,60.6,29.91,WSW,249,0.0,0.0,94,0.00,,OVC090,0.00,VWS V14.01,2013-01-17 07:30:00,
2013-01-17 02:38:00,62.3,60.6,29.91,WSW,250,0.0,0.0,94,0.00,,OVC090,0.00,VWS V14.01,2013-01-17 07:38:00,
2013-01-17 02:45:00,62.5,60.8,29.90,WSW,249,0.0,0.0,94,0.00,,OVC090,0.00,VWS V14.01,2013-01-17 07:45:00,
2013-01-17 02:53:00,62.7,61.0,29.90,WSW,249,0.0,0.0,94,0.00,,OVC090,0.00,VWS V14.01,2013-01-17 07:53:00,
2013-01-17 02:58:00,62.7,60.7,29.90,WSW,250,0.0,2.0,93,0.00,,OVC090,0.00,VWS V14.01,2013-01-17 07:58:00,
2013-01-17 03:00:00,61.4,59.7,29.90,NE,34,0.0,0.0,94,0.00,,SCT070,0.00,VWS V14.01,2013-01-17 08:00:00,
2013-01-17 03:03:00,62.7,60.7,29.91,WSW,250,0.0,0.0,93,0.00,,FEW037,0.00,VWS V14.01,2013-01-17 08:03:00,
2013-01-17 03:08:00,62.6,60.5,29.90,NE,34,0.0,4.0,93,0.00,,FEW037,0.00,VWS V14.01,2013-01-17 08:08:00,
2013-01-17 03:15:00,62.4,60.3,29.91,NE,34,0.0,4.0,93,0.00,,FEW037,0.00,VWS V14.01,2013-01-17 08:15:00,
2013-01-17 03:22:00,62.2,60.2,29.91,NE,34,0.0,0.0,93,0.00,,FEW037,0.00,VWS V14.01,2013-01-17 08:22:00,
2013-01-17 03:30:00,61.9,59.9,29.90,NE,34,0.0,0.0,93,0.00,,FEW037,0.00,VWS V14.01,2013-01-17 08:30:00,
2013-01-17 03:37:00,61.8,59.8,29.90,NE,34,0.0,0.0,93,0.00,,FEW037,0.00,VWS V14.01,2013-01-17 08:37:00,
2013-01-17 03:45:00,61.6,59.9,29.90,NE,34,0.0,0.0,94,0.00,,FEW037,0.00,VWS V14.01,2013-01-17 08:45:00,
2013-01-17 03:52:00,61.4,59.7,29.90,NE,34,0.0,0.0,94,0.00,,FEW037,0.00,VWS V14.01,2013-01-17 08:52:00,
2013-01-17 03:57:00,61.4,59.7,29.90,NE,34,0.0,0.0,94,0.00,,FEW037,0.00,VWS V14.01,2013-01-17 08:57:00,
2013-01-17 04:00:00,61.1,59.7,29.89,NNE,33,0.0,0.0,95,0.00,,SCT070,0.00,VWS V14.01,2013-01-17 09:00:00,
2013-01-17 04:02:00,61.3,59.6,29.90,NE,34,0.0,0.0,94,0.00,,BKN047,0.00,VWS V14.01,2013-01-17 09:02:00,
2013-01-17 04:07:00,61.3,59.6,29.90,NE,34,0.0,0.0,94,0.00,,BKN047,0.00,VWS V14.01,2013-01-17 09:07:00,
2013-01-17 04:15:00,61.2,59.8,29.90,NE,34,0.0,0.0,95,0.00,,BKN047,0.00,VWS V14.01,2013-01-17 09:15:00,
2013-01-17 04:22:00,61.3,59.9,29.89,NE,34,0.0,0.0,95,0.00,,BKN047,0.00,VWS V14.01,2013-01-17 09:22:00,
2013-01-17 04:27:00,61.3,59.9,29.89,NE,34,0.0,0.0,95,0.00,,BKN047,0.00,VWS V14.01,2013-01-17 09:27:00,
2013-01-17 04:30:00,61.0,59.8,29.89,NE,34,0.0,0.0,96,0.00,,SCT070,0.00,VWS V14.01,2013-01-17 09:30:00,
2013-01-17 04:32:00,61.4,60.0,29.89,NE,34,0.0,0.0,95,0.00,,BKN047,0.00,VWS V14.01,2013-01-17 09:32:00,
2013-01-17 04:42:00,61.4,60.0,29.89,NE,34,0.0,0.0,95,0.00,,BKN047,0.00,VWS V14.01,2013-01-17 09:42:00,
2013-01-17 04:45:00,61.1,60.0,29.89,NE,34,0.0,0.0,96,0.00,,SCT070,0.00,VWS V14.01,2013-01-17 09:45:00,
2013-01-17 04:47:00,61.3,59.9,29.89,NE,34,0.0,0.0,95,0.00,,BKN047,0.00,VWS V14.01,2013-01-17 09:47:00,
2013-01-17 04:57:00,61.2,59.8,29.89,NE,34,0.0,0.0,95,0.00,,BKN047,0.00,VWS V14.01,2013-01-17 09:57:00,
2013-01-17 05:00:00,60.8,59.4,29.89,NE,34,0.0,0.0,95,0.00,,SCT070,0.00,VWS V14.01,2013-01-17 10:00:00,
2013-01-17 05:02:00,61.1,59.7,29.89,NE,34,0.0,0.0,95,0.00,,SCT049,0.00,VWS V14.01,2013-01-17 10:02:00,
2013-01-17 05:07:00,61.0,59.6,29.89,NNE,33,0.0,0.0,95,0.00,,SCT049,0.00,VWS V14.01,2013-01-17 10:07:00,
2013-01-17 05:12:00,61.0,59.6,29.90,NNE,33,0.0,0.0,95,0.00,,SCT049,0.00,VWS V14.01,2013-01-17 10:12:00,
2013-01-17 05:15:00,60.5,59.4,29.90,NNE,33,0.0,0.0,96,0.00,,SCT070,0.00,VWS V14.01,2013-01-17 10:15:00,
2013-01-17 05:17:00,61.0,59.6,29.89,NNE,33,0.0,0.0,95,0.00,,SCT049,0.00,VWS V14.01,2013-01-17 10:17:00,
2013-01-17 05:27:00,61.0,59.9,29.89,NE,34,0.0,0.0,96,0.00,,SCT049,0.00,VWS V14.01,2013-01-17 10:27:00,
2013-01-17 05:30:00,60.3,59.2,29.90,NNE,33,0.0,0.0,96,0.00,,SCT070,0.00,VWS V14.01,2013-01-17 10:30:00,
2013-01-17 05:32:00,61.0,59.9,29.89,NE,34,0.0,0.0,96,0.00,,SCT049,0.00,VWS V14.01,2013-01-17 10:32:00,
2013-01-17 05:37:00,61.1,60.0,29.89,NNE,33,0.0,0.0,96,0.00,,SCT049,0.00,VWS V14.01,2013-01-17 10:37:00,
2013-01-17 05:45:00,61.1,60.0,29.89,NE,34,0.0,0.0,96,0.00,,SCT049,0.00,VWS V14.01,2013-01-17 10:45:00,
2013-01-17 05:52:00,60.9,59.8,29.89,NNE,33,0.0,0.0,96,0.00,,SCT049,0.00,VWS V14.01,2013-01-17 10:52:00,
2013-01-17 06:00:00,60.8,59.4,29.89,NE,34,0.0,0.0,95,0.00,,SCT049,0.00,VWS V14.01,2013-01-17 11:00:00,
2013-01-17 06:07:00,60.7,59.6,29.90,NE,34,0.0,0.0,96,0.00,,BKN050,0.00,VWS V14.01,2013-01-17 11:07:00,
2013-01-17 06:15:00,60.5,59.4,29.90,NNE,33,0.0,0.0,96,0.00,,BKN050,0.00,VWS V14.01,2013-01-17 11:15:00,
2013-01-17 06:22:00,60.4,59.3,29.90,NNE,33,0.0,0.0,96,0.00,,BKN050,0.00,VWS V14.01,2013-01-17 11:22:00,
2013-01-17 06:30:00,60.3,59.2,29.90,NNE,33,0.0,0.0,96,0.00,,BKN050,0.00,VWS V14.01,2013-01-17 11:30:00,
2013-01-17 06:37:00,60.4,59.3,29.90,NE,34,0.0,0.0,96,0.00,,BKN050,0.00,VWS V14.01,2013-01-17 11:37:00,
2013-01-17 06:45:00,60.5,59.4,29.90,NE,34,0.0,0.0,96,0.00,,BKN050,0.00,VWS V14.01,2013-01-17 11:45:00,
2013-01-17 06:52:00,60.4,59.3,29.90,NNE,33,0.0,0.0,96,0.00,,BKN050,0.00,VWS V14.01,2013-01-17 11:52:00,
2013-01-17 07:00:00,60.4,59.3,29.90,NE,34,0.0,0.0,96,0.00,,BKN050,0.00,VWS V14.01,2013-01-17 12:00:00,
2013-01-17 07:07:00,60.4,59.3,29.90,NE,34,0.0,0.0,96,0.00,,BKN055,0.00,VWS V14.01,2013-01-17 12:07:00,
2013-01-17 07:15:00,60.4,59.3,29.90,NE,34,0.0,0.0,96,0.00,,BKN055,0.00,VWS V14.01,2013-01-17 12:15:00,
2013-01-17 07:22:00,60.4,59.3,29.90,NE,34,0.0,0.0,96,0.00,,BKN055,0.00,VWS V14.01,2013-01-17 12:22:00,
2013-01-17 07:30:00,60.3,59.2,29.90,NE,34,0.0,0.0,96,0.00,,BKN055,0.00,VWS V14.01,2013-01-17 12:30:00,
2013-01-17 07:37:00,60.2,59.1,29.90,NE,34,0.0,0.0,96,0.00,,BKN055,0.00,VWS V14.01,2013-01-17 12:37:00,
2013-01-17 07:45:00,60.2,59.3,29.90,NNE,33,0.0,0.0,97,0.00,,BKN055,0.00,VWS V14.01,2013-01-17 12:45:00,
2013-01-17 07:52:00,60.2,59.3,29.90,NE,34,0.0,0.0,97,0.00,,BKN055,0.00,VWS V14.01,2013-01-17 12:52:00,
2013-01-17 07:56:00,60.2,59.3,29.90,NE,34,0.0,0.0,97,0.00,,BKN055,0.00,VWS V14.01,2013-01-17 12:56:00,
2013-01-17 08:00:00,63.2,62.0,29.90,NNE,14,0.0,1.0,96,0.00,,SCT070,0.00,VWS V14.01,2013-01-17 13:00:00,
2013-01-17 08:06:00,60.5,59.7,29.90,NNE,33,0.0,0.0,97,0.00,,BKN100,0.00,VWS V14.01,2013-01-17 13:06:00,
2013-01-17 08:11:00,60.7,59.8,29.90,NE,34,0.0,0.0,97,0.00,,BKN100,0.00,VWS V14.01,2013-01-17 13:11:00,
2013-01-17 08:15:00,64.3,62.2,29.90,NNE,14,0.0,2.0,93,0.00,,SCT070,0.00,VWS V14.01,2013-01-17 13:15:00,
2013-01-17 08:21:00,61.1,60.2,29.91,NE,34,0.0,0.0,97,0.00,,BKN100,0.00,VWS V14.01,2013-01-17 13:21:00,
2013-01-17 08:26:00,61.3,60.4,29.90,NE,34,0.0,0.0,97,0.00,,BKN100,0.00,VWS V14.01,2013-01-17 13:26:00,
2013-01-17 08:30:00,66.3,63.0,29.90,NNE,29,0.0,4.0,89,0.00,,SCT070,0.00,VWS V14.01,2013-01-17 13:30:00,
2013-01-17 08:36:00,61.7,60.8,29.90,NNE,33,0.0,0.0,97,0.00,,BKN100,0.00,VWS V14.01,2013-01-17 13:36:00,
2013-01-17 08:41:00,62.0,61.1,29.90,NNE,33,0.0,0.0,97,0.00,,BKN100,0.00,VWS V14.01,2013-01-17 13:41:00,
2013-01-17 08:45:00,67.6,63.3,29.89,SSW,210,0.0,4.0,86,0.00,,SCT070,0.00,VWS V14.01,2013-01-17 13:45:00,
2013-01-17 08:51:00,62.5,61.6,29.90,North,355,0.0,0.0,97,0.00,,BKN100,0.00,VWS V14.01,2013-01-17 13:51:00,
2013-01-17 08:56:00,62.9,61.8,29.90,North,355,0.0,0.0,96,0.00,,BKN100,0.00,VWS V14.01,2013-01-17 13:56:00,
2013-01-17 09:00:00,68.1,63.1,29.89,SSW,198,0.0,2.0,84,0.00,,SCT070,0.00,VWS V14.01,2013-01-17 14:00:00,
2013-01-17 09:06:00,63.6,62.2,29.90,NNE,13,0.0,0.0,95,0.00,,OVC100,0.00,VWS V14.01,2013-01-17 14:06:00,
2013-01-17 09:11:00,64.0,62.2,29.90,NNE,14,0.0,2.0,94,0.00,,OVC100,0.00,VWS V14.01,2013-01-17 14:11:00,
2013-01-17 09:15:00,68.5,63.1,29.88,West,263,0.0,6.0,83,0.00,,SCT070,0.00,VWS V14.01,2013-01-17 14:15:00,
2013-01-17 09:21:00,65.1,62.7,29.90,NNE,14,0.0,0.0,92,0.00,,OVC100,0.00,VWS V14.01,2013-01-17 14:21:00,
2013-01-17 09:26:00,65.8,63.1,29.90,NNE,14,0.0,1.0,91,0.00,,OVC100,0.00,VWS V14.01,2013-01-17 14:26:00,
2013-01-17 09:30:00,69.6,63.5,29.88,West,272,0.0,1.0,81,0.00,,SCT070,0.00,VWS V14.01,2013-01-17 14:30:00,
2013-01-17 09:36:00,66.9,63.6,29.90,NNE,22,0.0,1.0,89,0.00,,OVC100,0.00,VWS V14.01,2013-01-17 14:36:00,
2013-01-17 09:41:00,67.3,63.6,29.90,NNE,12,0.0,1.0,88,0.00,,OVC100,0.00,VWS V14.01,2013-01-17 14:41:00,
2013-01-17 09:45:00,70.6,63.8,29.86,NW,317,0.0,2.0,79,0.00,,SCT070,0.00,VWS V14.01,2013-01-17 14:45:00,
2013-01-17 09:51:00,67.9,63.2,29.89,ESE,118,0.0,2.0,85,0.00,,OVC100,0.00,VWS V14.01,2013-01-17 14:51:00,
2013-01-17 09:56:00,68.0,63.0,29.89,ESE,121,0.0,2.0,84,0.00,,OVC100,0.00,VWS V14.01,2013-01-17 14:56:00,
2013-01-17 10:00:00,71.6,64.0,29.84,NW,319,0.0,2.0,77,0.00,,SCT070,0.00,VWS V14.01,2013-01-17 15:00:00,
2013-01-17 10:01:00,68.2,63.2,29.89,SSW,198,0.0,0.0,84,0.00,,OVC100,0.00,VWS V14.01,2013-01-17 15:01:00,
2013-01-17 10:11:00,68.5,63.1,29.89,SSW,198,0.0,1.0,83,0.00,,CLR,0.00,VWS V14.01,2013-01-17 15:11:00,
2013-01-17 10:15:00,72.7,63.9,29.83,ESE,108,1.0,5.0,74,0.00,,SCT070,0.00,VWS V14.01,2013-01-17 15:15:00,
2013-01-17 10:21:00,68.8,63.4,29.88,West,262,0.0,1.0,83,0.00,,CLR,0.00,VWS V14.01,2013-01-17 15:21:00,
2013-01-17 10:26:00,69.2,63.8,29.88,West,261,0.0,1.0,83,0.00,,CLR,0.00,VWS V14.01,2013-01-17 15:26:00,
2013-01-17 10:30:00,73.6,63.2,29.82,ESE,108,1.0,4.0,70,0.00,,SCT070,0.00,VWS V14.01,2013-01-17 15:30:00,
2013-01-17 10:36:00,70.0,63.9,29.87,NE,37,0.0,2.0,81,0.00,,CLR,0.00,VWS V14.01,2013-01-17 15:36:00,
2013-01-17 10:41:00,70.4,64.3,29.87,NW,324,0.0,2.0,81,0.00,,CLR,0.00,VWS V14.01,2013-01-17 15:41:00,
2013-01-17 10:45:00,74.3,63.5,29.81,WSW,249,1.0,5.0,69,0.00,,SCT070,0.00,VWS V14.01,2013-01-17 15:45:00,
2013-01-17 10:51:00,71.0,63.8,29.85,WNW,297,0.0,2.0,78,0.00,,CLR,0.00,VWS V14.01,2013-01-17 15:51:00,
2013-01-17 10:56:00,71.3,64.1,29.85,NW,318,0.0,2.0,78,0.00,,CLR,0.00,VWS V14.01,2013-01-17 15:56:00,
2013-01-17 11:00:00,74.7,63.0,29.80,ESE,106,2.0,6.0,67,0.00,,SCT070,0.00,VWS V14.01,2013-01-17 16:00:00,
2013-01-17 11:06:00,72.2,63.5,29.84,ESE,107,1.0,5.0,74,0.00,,SCT043,0.00,VWS V14.01,2013-01-17 16:06:00,
2013-01-17 11:11:00,72.5,63.8,29.83,ESE,108,0.0,5.0,74,0.00,,SCT043,0.00,VWS V14.01,2013-01-17 16:11:00,
2013-01-17 11:15:00,75.5,63.8,29.79,East,96,0.0,4.0,67,0.00,,SCT070,0.00,VWS V14.01,2013-01-17 16:15:00,
2013-01-17 11:21:00,73.0,63.8,29.83,ESE,108,0.0,4.0,73,0.00,,SCT043,0.00,VWS V14.01,2013-01-17 16:21:00,
2013-01-17 11:26:00,73.4,63.8,29.83,ESE,107,0.0,4.0,72,0.00,,SCT043,0.00,VWS V14.01,2013-01-17 16:26:00,
2013-01-17 11:30:00,75.9,63.3,29.77,NW,325,0.0,4.0,65,0.00,,SCT070,0.00,VWS V14.01,2013-01-17 16:30:00,
2013-01-17 11:36:00,74.0,64.0,29.82,SE,142,0.0,5.0,71,0.00,,SCT043,0.00,VWS V14.01,2013-01-17 16:36:00,
2013-01-17 11:41:00,74.2,63.8,29.81,NW,314,1.0,5.0,70,0.00,,SCT043,0.00,VWS V14.01,2013-01-17 16:41:00,
2013-01-17 11:45:00,77.1,63.5,29.76,WNW,290,0.0,8.0,63,0.00,,SCT070,0.00,VWS V14.01,2013-01-17 16:45:00,
2013-01-17 11:46:00,74.3,63.1,29.81,SW,233,1.0,2.0,68,0.00,,SCT043,0.00,VWS V14.01,2013-01-17 16:46:00,
2013-01-17 11:55:00,74.5,63.3,29.81,South,173,1.0,2.0,68,0.00,,SCT043,0.00,VWS V14.01,2013-01-17 16:55:00,
2013-01-17 12:00:00,74.7,63.0,29.80,ESE,106,0.0,2.0,67,0.00,,SCT043,0.00,VWS V14.01,2013-01-17 17:00:00,
2013-01-17 12:10:00,75.3,63.6,29.79,East,93,0.0,4.0,67,0.00,,BKN038,0.00,VWS V14.01,2013-01-17 17:10:00,
2013-01-17 12:15:00,75.5,63.8,29.78,East,96,0.0,1.0,67,0.00,,BKN038,0.00,VWS V14.01,2013-01-17 17:15:00,
2013-01-17 12:25:00,75.5,63.8,29.77,SSE,150,0.0,4.0,67,0.00,,BKN038,0.00,VWS V14.01,2013-01-17 17:25:00,
2013-01-17 12:30:00,76.0,63.8,29.77,NW,325,0.0,1.0,66,0.00,,BKN038,0.00,VWS V14.01,2013-01-17 17:30:00,
2013-01-17 12:35:00,76.4,64.2,29.77,South,169,0.0,8.0,66,0.00,,BKN038,0.00,VWS V14.01,2013-01-17 17:35:00,
2013-01-17 12:45:00,77.1,63.5,29.76,WNW,290,0.0,8.0,63,0.00,,BKN038,0.00,VWS V14.01,2013-01-17 17:45:00,
2013-01-17 12:50:00,77.4,64.3,29.75,WNW,290,0.0,1.0,64,0.00,,BKN038,0.00,VWS V14.01,2013-01-17 17:50:00,
2013-01-17 13:00:00,77.7,64.1,29.74,North,355,0.0,2.0,63,0.00,,BKN038,0.00,VWS V14.01,2013-01-17 18:00:00,
2013-01-17 13:05:00,77.5,63.9,29.74,ENE,75,1.0,3.0,63,0.00,,BKN040,0.00,VWS V14.01,2013-01-17 18:05:00,
2013-01-17 13:15:00,76.7,63.6,29.73,ESE,123,0.0,4.0,64,0.00,,BKN040,0.00,VWS V14.01,2013-01-17 18:15:00,
2013-01-17 13:20:00,76.5,63.9,29.72,SW,216,0.0,3.0,65,0.00,,BKN040,0.00,VWS V14.01,2013-01-17 18:20:00,
2013-01-17 13:25:00,76.6,64.0,29.72,SE,128,0.0,7.0,65,0.00,,BKN040,0.00,VWS V14.01,2013-01-17 18:25:00,
2013-01-17 13:30:00,77.3,63.7,29.67,SE,125,0.0,5.0,63,0.00,,SCT070,0.00,VWS V14.01,2013-01-17 18:30:00,
2013-01-17 13:35:00,77.3,64.6,29.70,SSE,158,0.0,5.0,65,0.00,,BKN040,0.00,VWS V14.01,2013-01-17 18:35:00,
2013-01-17 13:40:00,78.1,64.5,29.70,ESE,104,2.0,5.0,63,0.00,,BKN040,0.00,VWS V14.01,2013-01-17 18:40:00,
2013-01-17 13:45:00,76.8,63.3,29.67,SE,143,0.0,7.0,63,0.00,,SCT070,0.00,VWS V14.01,2013-01-17 18:45:00,
2013-01-17 13:50:00,78.7,64.1,29.70,ENE,75,0.0,7.0,61,0.00,,BKN040,0.00,VWS V14.01,2013-01-17 18:50:00,
2013-01-17 13:55:00,77.9,63.4,29.70,ESE,103,0.0,7.0,61,0.00,,BKN040,0.00,VWS V14.01,2013-01-17 18:55:00,
2013-01-17 14:00:00,76.2,63.2,29.66,SSE,152,0.0,4.0,64,0.00,,SCT070,0.00,VWS V14.01,2013-01-17 19:00:00,
2013-01-17 14:05:00,77.5,63.9,29.69,ENE,63,0.0,5.0,63,0.00,,SCT047,0.00,VWS V14.01,2013-01-17 19:05:00,
2013-01-17 14:10:00,77.7,64.1,29.69,ENE,57,0.0,5.0,63,0.00,,SCT047,0.00,VWS V14.01,2013-01-17 19:10:00,
2013-01-17 14:15:00,76.0,64.3,29.65,SSE,158,1.0,4.0,67,0.00,,SCT070,0.00,VWS V14.01,2013-01-17 19:15:00,
2013-01-17 14:20:00,77.6,63.6,29.68,SE,133,2.0,4.0,62,0.00,,SCT047,0.00,VWS V14.01,2013-01-17 19:20:00,
2013-01-17 14:25:00,77.5,63.9,29.67,ESE,115,3.0,5.0,63,0.00,,SCT047,0.00,VWS V14.01,2013-01-17 19:25:00,
2013-01-17 14:30:00,77.3,63.7,29.67,SE,125,0.0,5.0,63,0.00,,SCT047,0.00,VWS V14.01,2013-01-17 19:30:00,
2013-01-17 14:35:00,77.3,63.3,29.67,SSE,153,0.0,2.0,62,0.00,,SCT047,0.00,VWS V14.01,2013-01-17 19:35:00,
2013-01-17 14:45:00,76.8,63.3,29.67,SE,143,0.0,7.0,63,0.00,,SCT047,0.00,VWS V14.01,2013-01-17 19:45:00,
2013-01-17 14:50:00,76.6,63.5,29.67,SE,143,0.0,1.0,64,0.00,,SCT047,0.00,VWS V14.01,2013-01-17 19:50:00,
2013-01-17 15:00:00,76.2,63.6,29.66,SSE,152,2.0,4.0,65,0.00,,SCT047,0.00,VWS V14.01,2013-01-17 20:00:00,
2013-01-17 15:05:00,76.1,63.5,29.66,SE,128,3.0,4.0,65,0.00,,OVC060,0.00,VWS V14.01,2013-01-17 20:05:00,
2013-01-17 15:15:00,76.0,64.3,29.65,SSE,158,0.0,4.0,67,0.00,,OVC060,0.00,VWS V14.01,2013-01-17 20:15:00,
2013-01-17 15:20:00,75.9,63.7,29.65,SE,133,0.0,5.0,66,0.00,,OVC060,0.00,VWS V14.01,2013-01-17 20:20:00,
2013-01-17 15:25:00,75.6,63.9,29.65,SE,133,0.0,5.0,67,0.00,,OVC060,0.00,VWS V14.01,2013-01-17 20:25:00,
2013-01-17 15:30:00,75.1,63.8,29.64,South,176,0.0,6.0,68,0.00,,OVC060,0.00,VWS V14.01,2013-01-17 20:30:00,
2013-01-17 15:40:00,74.2,63.4,29.65,SSE,167,0.0,5.0,69,0.00,,OVC048,0.00,VWS V14.01,2013-01-17 20:40:00,
2013-01-17 15:44:00,73.8,63.4,29.66,South,190,3.0,5.0,70,0.00,,OVC048,0.00,VWS V14.01,2013-01-17 20:44:00,
2013-01-17 15:45:00,55.4,52.8,29.77,North,5,0.0,7.0,91,0.12,,SCT070,0.12,VWS V14.01,2013-01-17 20:45:00,
2013-01-17 15:54:00,68.3,59.7,29.71,East,80,4.0,14.0,74,0.03,,OVC048,0.03,VWS V14.01,2013-01-17 20:54:00,
2013-01-17 15:59:00,64.6,58.0,29.72,ESE,123,0.0,14.0,79,0.04,,OVC048,0.04,VWS V14.01,2013-01-17 20:59:00,
2013-01-17 16:00:00,53.6,51.3,29.78,SW,227,4.0,21.0,92,0.14,,SCT070,0.14,VWS V14.01,2013-01-17 21:00:00,
2013-01-17 16:04:00,62.0,56.8,29.73,NNW,341,0.0,8.0,83,0.04,,RA,0.04,VWS V14.01,2013-01-17 21:04:00,
2013-01-17 16:09:00,60.2,55.7,29.73,WNW,287,3.0,9.0,85,0.04,,RA,0.04,VWS V14.01,2013-01-17 21:09:00,
2013-01-17 16:14:00,59.0,55.1,29.74,East,96,0.0,9.0,87,0.04,,RA,0.04,VWS V14.01,2013-01-17 21:14:00,
2013-01-17 16:15:00,52.8,51.1,29.78,WSW,241,0.0,5.0,94,0.16,,SCT070,0.20,VWS V14.01,2013-01-17 21:15:00,
2013-01-17 16:19:00,58.2,55.0,29.75,South,188,0.0,2.0,89,0.04,,RA,0.04,VWS V14.01,2013-01-17 21:19:00,
2013-01-17 16:29:00,57.0,54.4,29.74,NNW,339,3.0,8.0,91,0.06,,RA,0.06,VWS V14.01,2013-01-17 21:29:00,
2013-01-17 16:30:00,52.1,50.4,29.80,SSW,205,0.0,8.0,94,0.19,,SCT070,0.23,VWS V14.01,2013-01-17 21:30:00,
2013-01-17 16:34:00,56.8,54.5,29.74,SSW,195,5.0,6.0,92,0.07,,RA,0.07,VWS V14.01,2013-01-17 21:34:00,
2013-01-17 16:44:00,55.5,52.9,29.77,NW,322,1.0,7.0,91,0.11,,RA,0.11,VWS V14.01,2013-01-17 21:44:00,
2013-01-17 16:45:00,50.6,48.7,29.79,SE,124,0.0,7.0,93,0.19,,SCT070,0.25,VWS V14.01,2013-01-17 21:45:00,
2013-01-17 16:49:00,54.8,52.5,29.77,WSW,246,1.0,9.0,92,0.13,,RA,0.13,VWS V14.01,2013-01-17 21:49:00,
2013-01-17 16:59:00,53.7,51.4,29.78,ENE,73,0.0,21.0,92,0.14,,RA,0.14,VWS V14.01,2013-01-17 21:59:00,
2013-01-17 17:00:00,49.7,47.8,29.82,ENE,65,1.0,5.0,93,0.13,,SCT070,0.25,VWS V14.01,2013-01-17 22:00:00,
2013-01-17 17:04:00,53.2,51.2,29.78,NW,314,0.0,4.0,93,0.12,,-RA,0.16,VWS V14.01,2013-01-17 22:04:00,
2013-01-17 17:14:00,52.8,51.1,29.78,SW,221,1.0,5.0,94,0.16,,-RA,0.20,VWS V14.01,2013-01-17 22:14:00,
2013-01-17 17:15:00,49.3,47.4,29.83,South,171,0.0,8.0,93,0.11,,SCT070,0.25,VWS V14.01,2013-01-17 22:15:00,
2013-01-17 17:19:00,52.6,50.9,29.78,SSW,194,0.0,5.0,94,0.17,,-RA,0.21,VWS V14.01,2013-01-17 22:19:00,
2013-01-17 17:29:00,52.2,50.5,29.80,SSE,153,0.0,8.0,94,0.19,,-RA,0.23,VWS V14.01,2013-01-17 22:29:00,
2013-01-17 17:30:00,49.1,47.5,29.84,North,350,0.0,6.0,94,0.05,,SCT070,0.25,VWS V14.01,2013-01-17 22:30:00,
2013-01-17 17:34:00,51.9,50.2,29.80,WSW,254,0.0,7.0,94,0.18,,-RA,0.24,VWS V14.01,2013-01-17 22:34:00,
2013-01-17 17:44:00,50.6,48.7,29.79,SE,125,1.0,7.0,93,0.19,,-RA,0.25,VWS V14.01,2013-01-17 22:44:00,
2013-01-17 17:45:00,48.7,46.8,29.84,WSW,240,0.0,6.0,93,0.02,,SCT070,0.25,VWS V14.01,2013-01-17 22:45:00,
2013-01-17 17:49:00,50.2,48.3,29.81,SSE,163,0.0,1.0,93,0.13,,-RA,0.25,VWS V14.01,2013-01-17 22:49:00,
2013-01-17 17:59:00,49.7,47.8,29.82,South,188,0.0,5.0,93,0.13,,-RA,0.25,VWS V14.01,2013-01-17 22:59:00,
2013-01-17 18:00:00,48.7,46.8,29.85,South,182,0.0,5.0,93,0.00,,SCT070,0.25,VWS V14.01,2013-01-17 23:00:00,
2013-01-17 18:04:00,49.6,47.7,29.82,WSW,242,0.0,8.0,93,0.11,,OVC032,0.25,VWS V14.01,2013-01-17 23:04:00,
2013-01-17 18:14:00,49.3,47.4,29.83,South,171,0.0,8.0,93,0.11,,OVC032,0.25,VWS V14.01,2013-01-17 23:14:00,
2013-01-17 18:15:00,48.8,46.9,29.86,NNW,342,0.0,4.0,93,0.00,,SCT070,0.25,VWS V14.01,2013-01-17 23:15:00,
2013-01-17 18:19:00,49.3,47.4,29.83,SSE,152,1.0,5.0,93,0.05,,OVC032,0.25,VWS V14.01,2013-01-17 23:19:00,
2013-01-17 18:29:00,49.1,47.5,29.84,ESE,123,0.0,6.0,94,0.05,,OVC032,0.25,VWS V14.01,2013-01-17 23:29:00,
2013-01-17 18:30:00,48.8,46.9,29.87,NNW,338,1.0,1.0,93,0.00,,SCT070,0.25,VWS V14.01,2013-01-17 23:30:00,
2013-01-17 18:34:00,49.0,47.3,29.83,South,190,2.0,6.0,94,0.02,,BKN034,0.25,VWS V14.01,2013-01-17 23:34:00,
2013-01-17 18:44:00,48.7,46.8,29.84,SW,219,0.0,6.0,93,0.02,,BKN034,0.25,VWS V14.01,2013-01-17 23:44:00,
2013-01-17 18:45:00,48.6,46.4,29.88,SW,229,0.0,7.0,92,0.00,,SCT070,0.25,VWS V14.01,2013-01-17 23:45:00,
2013-01-17 18:49:00,48.6,46.7,29.84,ENE,65,2.0,5.0,93,0.00,,BKN034,0.25,VWS V14.01,2013-01-17 23:49:00,
2013-01-17 18:59:00,48.7,46.8,29.85,South,182,0.0,5.0,93,0.00,,BKN034,0.25,VWS V14.01,2013-01-17 23:59:00,
2013-01-17 19:00:00,48.4,45.3,29.90,WNW,302,0.0,9.0,89,0.00,,SCT070,0.25,VWS V14.01,2013-01-18 00:00:00,
2013-01-17 19:04:00,48.7,46.8,29.86,SSE,150,0.0,4.0,93,0.00,,OVC034,0.25,VWS V14.01,2013-01-18 00:04:00,
2013-01-17 19:09:00,48.7,46.8,29.86,North,360,1.0,4.0,93,0.00,,OVC034,0.25,VWS V14.01,2013-01-18 00:09:00,
2013-01-17 19:15:00,48.8,46.9,29.86,NNW,342,0.0,4.0,93,0.00,,OVC034,0.25,VWS V14.01,2013-01-18 00:15:00,
2013-01-17 19:24:00,48.8,46.9,29.87,NNW,338,0.0,1.0,93,0.00,,OVC034,0.25,VWS V14.01,2013-01-18 00:24:00,
2013-01-17 19:29:00,48.8,46.9,29.87,NNW,338,0.0,1.0,93,0.00,,OVC034,0.25,VWS V14.01,2013-01-18 00:29:00,
2013-01-17 19:30:00,48.1,43.5,29.92,NE,55,0.0,7.0,84,0.01,,SCT070,0.26,VWS V14.01,2013-01-18 00:30:00,
2013-01-17 19:34:00,48.7,46.8,29.87,NW,309,0.0,4.0,93,0.00,,OVC034,0.25,VWS V14.01,2013-01-18 00:34:00,
2013-01-17 19:43:00,48.6,46.4,29.88,SW,229,0.0,7.0,92,0.00,,OVC034,0.25,VWS V14.01,2013-01-18 00:43:00,
2013-01-17 19:45:00,47.8,43.2,29.93,ESE,103,0.0,7.0,84,0.01,,SCT070,0.26,VWS V14.01,2013-01-18 00:45:00,
2013-01-17 19:48:00,48.5,46.3,29.89,ENE,76,0.0,4.0,92,0.00,,OVC034,0.25,VWS V14.01,2013-01-18 00:48:00,
2013-01-17 19:58:00,48.4,45.6,29.90,NNW,327,1.0,9.0,90,0.00,,OVC034,0.25,VWS V14.01,2013-01-18 00:58:00,
2013-01-17 20:00:00,47.8,42.9,29.94,NW,311,4.0,8.0,83,0.01,,SCT070,0.26,VWS V14.01,2013-01-18 01:00:00,
2013-01-17 20:03:00,48.3,44.6,29.90,NW,304,5.0,10.0,87,0.01,,BKN040,0.26,VWS V14.01,2013-01-18 01:03:00,
2013-01-17 20:13:00,48.3,44.3,29.91,NNW,334,2.0,10.0,86,0.01,,BKN040,0.26,VWS V14.01,2013-01-18 01:13:00,
2013-01-17 20:15:00,47.2,41.7,29.96,NNW,329,0.0,10.0,81,0.01,,SCT070,0.26,VWS V14.01,2013-01-18 01:15:00,
2013-01-17 20:18:00,48.3,44.3,29.91,NNE,32,0.0,6.0,86,0.01,,BKN040,0.26,VWS V14.01,2013-01-18 01:18:00,
2013-01-17 20:28:00,48.1,43.8,29.92,NW,304,4.0,7.0,85,0.01,,BKN040,0.26,VWS V14.01,2013-01-18 01:28:00,
2013-01-17 20:30:00,46.8,41.3,29.96,NNW,344,2.0,6.0,81,0.00,,SCT070,0.26,VWS V14.01,2013-01-18 01:30:00,
2013-01-17 20:33:00,48.1,43.5,29.92,WNW,288,0.0,1.0,84,0.01,,BKN040,0.26,VWS V14.01,2013-01-18 01:33:00,
2013-01-17 20:38:00,48.0,43.4,29.93,ENE,57,2.0,5.0,84,0.01,,BKN040,0.26,VWS V14.01,2013-01-18 01:38:00,
2013-01-17 20:43:00,47.9,43.0,29.93,NNE,22,0.0,6.0,83,0.01,,BKN040,0.26,VWS V14.01,2013-01-18 01:43:00,
2013-01-17 20:45:00,46.5,41.3,29.98,North,360,1.0,6.0,82,0.00,,SCT070,0.26,VWS V14.01,2013-01-18 01:45:00,
2013-01-17 20:53:00,47.7,42.8,29.94,NW,317,2.0,7.0,83,0.01,,BKN040,0.26,VWS V14.01,2013-01-18 01:53:00,
2013-01-17 20:58:00,47.8,42.9,29.94,NNW,327,0.0,7.0,83,0.01,,BKN040,0.26,VWS V14.01,2013-01-18 01:58:00,
2013-01-17 21:00:00,46.7,40.9,29.98,NNW,348,5.0,8.0,80,0.00,,SCT070,0.26,VWS V14.01,2013-01-18 02:00:00,
2013-01-17 21:08:00,47.6,42.1,29.95,NW,314,0.0,10.0,81,0.01,,BKN040,0.26,VWS V14.01,2013-01-18 02:08:00,
2013-01-17 21:13:00,47.3,41.8,29.95,WNW,303,1.0,10.0,81,0.01,,BKN040,0.26,VWS V14.01,2013-01-18 02:13:00,
2013-01-17 21:15:00,46.7,41.2,29.99,NW,323,4.0,11.0,81,0.00,,SCT070,0.26,VWS V14.01,2013-01-18 02:15:00,
2013-01-17 21:18:00,47.1,41.6,29.96,NW,319,0.0,6.0,81,0.00,,BKN040,0.26,VWS V14.01,2013-01-18 02:18:00,
2013-01-17 21:23:00,46.9,41.4,29.96,NNW,340,1.0,6.0,81,0.00,,BKN040,0.26,VWS V14.01,2013-01-18 02:23:00,
2013-01-17 21:30:00,46.8,41.3,29.96,NNW,344,2.0,6.0,81,0.00,,BKN040,0.26,VWS V14.01,2013-01-18 02:30:00,
2013-01-17 21:38:00,46.5,41.3,29.97,NE,35,1.0,6.0,82,0.00,,BKN040,0.26,VWS V14.01,2013-01-18 02:38:00,
2013-01-17 21:43:00,46.4,41.5,29.97,SE,136,0.0,6.0,83,0.00,,BKN040,0.26,VWS V14.01,2013-01-18 02:43:00,
2013-01-17 21:45:00,46.1,42.2,30.00,NW,325,4.0,12.0,86,0.00,,SCT070,0.26,VWS V14.01,2013-01-18 02:45:00,
2013-01-17 21:48:00,46.5,41.0,29.98,NW,322,1.0,6.0,81,0.00,,BKN040,0.26,VWS V14.01,2013-01-18 02:48:00,
2013-01-17 21:53:00,46.6,41.1,29.98,SSE,160,0.0,8.0,81,0.00,,BKN040,0.26,VWS V14.01,2013-01-18 02:53:00,
2013-01-17 22:00:00,46.7,40.9,29.98,NNW,348,5.0,8.0,80,0.00,,BKN040,0.26,VWS V14.01,2013-01-18 03:00:00,
2013-01-17 22:08:00,46.8,41.0,29.99,SSW,202,0.0,11.0,80,0.00,,OVC030,0.26,VWS V14.01,2013-01-18 03:08:00,
2013-01-17 22:15:00,46.7,41.2,29.99,NW,323,4.0,11.0,81,0.00,,OVC030,0.26,VWS V14.01,2013-01-18 03:15:00,
2013-01-17 22:23:00,46.4,41.2,29.99,NW,319,1.0,10.0,82,0.00,,OVC030,0.26,VWS V14.01,2013-01-18 03:23:00,
2013-01-17 22:30:00,46.3,41.4,29.99,West,272,0.0,10.0,83,0.00,,OVC030,0.26,VWS V14.01,2013-01-18 03:30:00,
2013-01-17 22:38:00,46.2,41.6,29.99,NW,319,1.0,6.0,84,0.00,,OVC036,0.26,VWS V14.01,2013-01-18 03:38:00,
2013-01-17 22:45:00,46.1,42.2,30.00,NW,325,4.0,12.0,86,0.00,,OVC036,0.26,VWS V14.01,2013-01-18 03:45:00,
2013-01-17 22:53:00,45.9,42.5,30.00,NW,323,5.0,8.0,88,0.00,,OVC036,0.26,VWS V14.01,2013-01-18 03:53:00,
2013-01-17 23:00:00,45.8,42.8,30.00,NNW,333,0.0,8.0,89,0.00,,OVC036,0.26,VWS V14.01,2013-01-18 04:00:00,
2013-01-17 23:08:00,46.0,43.2,30.00,NW,305,4.0,8.0,90,0.00,,OVC019,0.26,VWS V14.01,2013-01-18 04:08:00,
2013-01-17 23:13:00,46.2,43.4,30.01,NW,315,6.0,8.0,90,0.00,,OVC019,0.26,VWS V14.01,2013-01-18 04:13:00,
2013-01-17 23:15:00,46.5,42.8,30.06,North,5,1.0,9.0,87,0.00,,SCT070,0.00,VWS V14.01,2013-01-18 04:15:00,
2013-01-17 23:23:00,46.6,43.2,30.02,NW,309,6.0,9.0,88,0.00,,OVC019,0.26,VWS V14.01,2013-01-18 04:23:00,
2013-01-17 23:28:00,46.6,42.9,30.02,NNE,30,0.0,9.0,87,0.00,,OVC019,0.26,VWS V14.01,2013-01-18 04:28:00,
2013-01-17 23:30:00,46.1,42.5,30.08,NE,37,5.0,11.0,87,0.00,,SCT070,0.00,VWS V14.01,2013-01-18 04:30:00,
2013-01-17 23:38:00,46.6,42.9,30.03,NNW,334,0.0,7.0,87,0.00,,OVC019,0.26,VWS V14.01,2013-01-18 04:38:00,
2013-01-17 23:42:00,46.6,42.9,30.03,NNW,338,2.0,8.0,87,0.00,,OVC019,0.26,VWS V14.01,2013-01-18 04:42:00,
2013-01-17 23:45:00,45.5,41.9,30.10,NW,323,1.0,8.0,87,0.00,,SCT070,0.00,VWS V14.01,2013-01-18 04:45:00,
2013-01-17 23:52:00,46.6,42.9,30.03,North,355,2.0,8.0,87,0.00,,OVC019,0.26,VWS V14.01,2013-01-18 04:52:00,
2013-01-17 23:57:00,46.6,42.9,30.05,NNW,336,7.0,8.0,87,0.00,,OVC019,0.26,VWS V14.01,2013-01-18 04:57:00,